EJU82CF LFLL-LIRN
Flight info
| Callsign | EJU82CF |
|---|---|
| Flight time | 1h 52m |
| Altitude | 22000 |
| Route | RISOR T47 GEMLA/N0400F230 DCT VANAS DCT MEDAM DCT NITAM DCT MOGBO/N0441F370 DCT SOVAN DCT RITEB DCT EVULI DCT ERIKA |
| Aircraft | A320/M-SDE3FGHIRWY/LB1 |
Departure
| Time | 2026-05-04 15:17 |
|---|---|
| Airport | Lyon Saint-Exupéry Airport (LFLL) |
Arrival
| Time | 2026-05-04 17:09 |
|---|---|
| Airport | Naples International Airport (LIRN) |
| Time | Latitude | Longitude | Altitude | Speed | Heading |
|---|---|---|---|---|---|
| 2026-05-04 15:01 | 45.71866 | 5.08084 | 796 ft | 0 kts | 309° |
| 2026-05-04 15:06 | 45.71865 | 5.08086 | 796 ft | 2 kts | 309° |
| 2026-05-04 15:06 | 45.71850 | 5.08114 | 796 ft | 4 kts | 302° |
| 2026-05-04 15:07 | 45.71816 | 5.08165 | 797 ft | 4 kts | 356° |
| 2026-05-04 15:07 | 45.71801 | 5.08163 | 797 ft | 0 kts | 21° |
| 2026-05-04 15:09 | 45.71804 | 5.08165 | 797 ft | 4 kts | 21° |
| 2026-05-04 15:09 | 45.71864 | 5.08193 | 797 ft | 10 kts | 15° |
| 2026-05-04 15:10 | 45.71966 | 5.08262 | 798 ft | 5 kts | 68° |
| 2026-05-04 15:10 | 45.71967 | 5.08296 | 799 ft | 2 kts | 93° |
| 2026-05-04 15:10 | 45.71967 | 5.08303 | 799 ft | 1 kts | 94° |
| 2026-05-04 15:11 | 45.71956 | 5.08397 | 800 ft | 15 kts | 92° |
| 2026-05-04 15:11 | 45.72017 | 5.08456 | 802 ft | 10 kts | 353° |
| 2026-05-04 15:11 | 45.72113 | 5.08443 | 803 ft | 18 kts | 355° |
| 2026-05-04 15:11 | 45.72252 | 5.08424 | 800 ft | 21 kts | 355° |
| 2026-05-04 15:12 | 45.72395 | 5.08412 | 797 ft | 21 kts | 357° |
| 2026-05-04 15:12 | 45.72537 | 5.08391 | 796 ft | 20 kts | 355° |
| 2026-05-04 15:12 | 45.72682 | 5.08373 | 791 ft | 22 kts | 355° |
| 2026-05-04 15:12 | 45.72830 | 5.08355 | 790 ft | 22 kts | 355° |
| 2026-05-04 15:13 | 45.73003 | 5.08335 | 788 ft | 27 kts | 355° |
| 2026-05-04 15:13 | 45.73188 | 5.08311 | 785 ft | 26 kts | 355° |
| 2026-05-04 15:13 | 45.73371 | 5.08289 | 781 ft | 27 kts | 355° |
| 2026-05-04 15:13 | 45.73554 | 5.08266 | 780 ft | 26 kts | 355° |
| 2026-05-04 15:14 | 45.73731 | 5.08246 | 776 ft | 26 kts | 355° |
| 2026-05-04 15:14 | 45.73906 | 5.08225 | 776 ft | 24 kts | 355° |
| 2026-05-04 15:14 | 45.74074 | 5.08231 | 772 ft | 25 kts | 15° |
| 2026-05-04 15:14 | 45.74237 | 5.08284 | 772 ft | 23 kts | 14° |
| 2026-05-04 15:15 | 45.74393 | 5.08338 | 770 ft | 23 kts | 11° |
| 2026-05-04 15:15 | 45.74544 | 5.08387 | 769 ft | 22 kts | 13° |
| 2026-05-04 15:15 | 45.74651 | 5.08508 | 767 ft | 20 kts | 84° |
| 2026-05-04 15:16 | 45.74454 | 5.08621 | 771 ft | 27 kts | 175° |
| 2026-05-04 15:16 | 45.74002 | 5.08677 | 774 ft | 98 kts | 174° |
| 2026-05-04 15:16 | 45.72004 | 5.08935 | 1156 ft | 170 kts | 173° |
| 2026-05-04 15:17 | 45.70831 | 5.09094 | 1937 ft | 168 kts | 174° |
| 2026-05-04 15:17 | 45.68256 | 5.09415 | 2819 ft | 206 kts | 173° |
| 2026-05-04 15:17 | 45.66738 | 5.09603 | 3165 ft | 231 kts | 175° |
| 2026-05-04 15:18 | 45.65114 | 5.09791 | 4027 ft | 236 kts | 175° |
| 2026-05-04 15:18 | 45.63471 | 5.09977 | 4987 ft | 238 kts | 175° |
| 2026-05-04 15:18 | 45.61809 | 5.10260 | 5760 ft | 249 kts | 166° |
| 2026-05-04 15:19 | 45.58754 | 5.12929 | 7294 ft | 269 kts | 131° |
| 2026-05-04 15:19 | 45.57742 | 5.15205 | 8171 ft | 276 kts | 115° |
| 2026-05-04 15:19 | 45.57418 | 5.20736 | 9853 ft | 293 kts | 81° |
| 2026-05-04 15:20 | 45.57660 | 5.23633 | 10673 ft | 295 kts | 93° |
| 2026-05-04 15:20 | 45.57386 | 5.26568 | 11252 ft | 307 kts | 105° |
| 2026-05-04 15:20 | 45.56849 | 5.29640 | 11541 ft | 330 kts | 106° |
| 2026-05-04 15:20 | 45.56246 | 5.32892 | 11958 ft | 346 kts | 107° |
| 2026-05-04 15:21 | 45.55617 | 5.36238 | 12656 ft | 352 kts | 107° |
| 2026-05-04 15:21 | 45.54981 | 5.39630 | 13370 ft | 356 kts | 107° |
| 2026-05-04 15:21 | 45.53686 | 5.46553 | 14749 ft | 366 kts | 107° |
| 2026-05-04 15:22 | 45.53031 | 5.50082 | 15416 ft | 370 kts | 107° |
| 2026-05-04 15:22 | 45.52367 | 5.53653 | 16063 ft | 375 kts | 108° |
| 2026-05-04 15:22 | 45.51087 | 5.60957 | 17280 ft | 386 kts | 102° |
| 2026-05-04 15:23 | 45.50936 | 5.64819 | 17848 ft | 395 kts | 90° |
| 2026-05-04 15:23 | 45.51254 | 5.68743 | 18399 ft | 401 kts | 85° |
| 2026-05-04 15:23 | 45.51632 | 5.72652 | 18959 ft | 405 kts | 85° |
| 2026-05-04 15:23 | 45.52015 | 5.76653 | 19535 ft | 409 kts | 85° |
| 2026-05-04 15:24 | 45.52767 | 5.84763 | 20581 ft | 416 kts | 85° |
| 2026-05-04 15:24 | 45.53519 | 5.93021 | 21601 ft | 424 kts | 85° |
| 2026-05-04 15:25 | 45.53903 | 5.97206 | 22083 ft | 427 kts | 85° |
| 2026-05-04 15:25 | 45.54297 | 6.01481 | 22567 ft | 431 kts | 85° |
| 2026-05-04 15:25 | 45.54684 | 6.05680 | 23041 ft | 434 kts | 84° |
| 2026-05-04 15:26 | 45.55472 | 6.14271 | 23927 ft | 441 kts | 85° |
| 2026-05-04 15:26 | 45.55864 | 6.18620 | 24361 ft | 444 kts | 85° |
| 2026-05-04 15:26 | 45.56634 | 6.27412 | 25223 ft | 448 kts | 86° |
| 2026-05-04 15:27 | 45.56703 | 6.31849 | 25636 ft | 448 kts | 96° |
| 2026-05-04 15:27 | 45.55370 | 6.40533 | 26470 ft | 445 kts | 115° |
| 2026-05-04 15:28 | 45.53077 | 6.48710 | 27178 ft | 450 kts | 115° |
| 2026-05-04 15:28 | 45.51911 | 6.52851 | 27587 ft | 451 kts | 115° |
| 2026-05-04 15:28 | 45.49551 | 6.61188 | 28317 ft | 456 kts | 115° |
| 2026-05-04 15:29 | 45.48357 | 6.65394 | 28654 ft | 458 kts | 115° |
| 2026-05-04 15:30 | 45.40855 | 6.79566 | 29878 ft | 450 kts | 148° |
| 2026-05-04 15:30 | 45.33119 | 6.87297 | 30767 ft | 456 kts | 149° |
| 2026-05-04 15:31 | 45.27938 | 6.92490 | 31530 ft | 455 kts | 149° |
| 2026-05-04 15:31 | 45.25468 | 6.95317 | 31887 ft | 459 kts | 141° |
| 2026-05-04 15:32 | 45.18590 | 7.04798 | 32930 ft | 460 kts | 140° |
| 2026-05-04 15:32 | 45.14003 | 7.11110 | 33621 ft | 459 kts | 141° |
| 2026-05-04 15:33 | 45.09623 | 7.17732 | 34198 ft | 467 kts | 130° |
| 2026-05-04 15:34 | 45.04025 | 7.29040 | 35043 ft | 468 kts | 130° |
| 2026-05-04 15:34 | 45.02160 | 7.32806 | 35312 ft | 468 kts | 130° |
| 2026-05-04 15:34 | 44.98722 | 7.39708 | 35812 ft | 468 kts | 130° |
| 2026-05-04 15:35 | 44.95067 | 7.47356 | 36273 ft | 471 kts | 127° |
| 2026-05-04 15:35 | 44.93337 | 7.51295 | 36477 ft | 473 kts | 126° |
| 2026-05-04 15:35 | 44.91665 | 7.55197 | 36681 ft | 474 kts | 126° |
| 2026-05-04 15:36 | 44.88250 | 7.63135 | 37078 ft | 472 kts | 126° |
| 2026-05-04 15:36 | 44.84788 | 7.70952 | 37108 ft | 468 kts | 127° |
| 2026-05-04 15:37 | 44.81298 | 7.78669 | 37116 ft | 467 kts | 127° |
| 2026-05-04 15:37 | 44.77813 | 7.86387 | 37112 ft | 467 kts | 127° |
| 2026-05-04 15:38 | 44.74338 | 7.94122 | 37115 ft | 467 kts | 127° |
| 2026-05-04 15:38 | 44.70858 | 8.01839 | 37107 ft | 468 kts | 127° |
| 2026-05-04 15:39 | 44.67361 | 8.09554 | 37104 ft | 468 kts | 127° |
| 2026-05-04 15:40 | 44.62105 | 8.21132 | 37107 ft | 468 kts | 127° |
| 2026-05-04 15:40 | 44.58592 | 8.28827 | 37103 ft | 468 kts | 127° |
| 2026-05-04 15:41 | 44.55078 | 8.36522 | 37094 ft | 468 kts | 127° |
| 2026-05-04 15:41 | 44.51557 | 8.44199 | 37102 ft | 468 kts | 127° |
| 2026-05-04 15:42 | 44.48029 | 8.51876 | 37100 ft | 469 kts | 127° |
| 2026-05-04 15:42 | 44.44497 | 8.59536 | 37099 ft | 469 kts | 127° |
| 2026-05-04 15:43 | 44.40957 | 8.67195 | 37105 ft | 468 kts | 127° |
| 2026-05-04 15:43 | 44.37418 | 8.74842 | 37103 ft | 468 kts | 127° |
| 2026-05-04 15:44 | 44.33899 | 8.82423 | 37099 ft | 468 kts | 127° |
| 2026-05-04 15:44 | 44.30919 | 8.88808 | 37098 ft | 468 kts | 127° |
| 2026-05-04 15:45 | 44.26798 | 8.97644 | 37093 ft | 468 kts | 127° |
| 2026-05-04 15:45 | 44.23246 | 9.05246 | 37103 ft | 468 kts | 127° |
| 2026-05-04 15:46 | 44.20258 | 9.11608 | 37104 ft | 468 kts | 127° |
| 2026-05-04 15:46 | 44.16690 | 9.19178 | 37109 ft | 468 kts | 127° |
| 2026-05-04 15:47 | 44.16521 | 9.19538 | 37101 ft | 468 kts | 127° |
| 2026-05-04 16:14 | 44.14329 | 9.24090 | 37113 ft | 467 kts | 126° |
| 2026-05-04 16:16 | 44.05476 | 9.42939 | 37097 ft | 466 kts | 127° |
| 2026-05-04 16:17 | 43.96513 | 9.61687 | 37084 ft | 468 kts | 127° |
| 2026-05-04 16:18 | 43.89292 | 9.76770 | 37100 ft | 470 kts | 127° |
| 2026-05-04 16:19 | 43.80224 | 9.95593 | 37109 ft | 470 kts | 127° |
| 2026-05-04 16:20 | 43.71121 | 10.14335 | 37105 ft | 470 kts | 127° |
| 2026-05-04 16:22 | 43.61981 | 10.33068 | 37110 ft | 471 kts | 127° |
| 2026-05-04 16:23 | 43.50969 | 10.55467 | 37098 ft | 472 kts | 127° |
| 2026-05-04 16:25 | 43.39849 | 10.77929 | 37092 ft | 474 kts | 127° |
| 2026-05-04 16:26 | 43.26759 | 11.04137 | 37104 ft | 476 kts | 127° |
| 2026-05-04 16:28 | 43.17339 | 11.22822 | 37105 ft | 477 kts | 127° |
| 2026-05-04 16:29 | 43.04078 | 11.48987 | 37114 ft | 479 kts | 127° |
| 2026-05-04 16:31 | 42.94549 | 11.67625 | 37116 ft | 480 kts | 127° |
| 2026-05-04 16:32 | 42.83006 | 11.90056 | 37111 ft | 483 kts | 127° |
| 2026-05-04 16:33 | 42.76045 | 12.03990 | 37111 ft | 485 kts | 125° |
| 2026-05-04 16:34 | 42.70376 | 12.15355 | 37115 ft | 487 kts | 126° |
| 2026-05-04 16:35 | 42.59855 | 12.39078 | 37140 ft | 490 kts | 122° |
| 2026-05-04 16:36 | 42.54595 | 12.50966 | 37151 ft | 490 kts | 122° |
| 2026-05-04 16:37 | 42.49295 | 12.62812 | 37157 ft | 490 kts | 122° |
| 2026-05-04 16:38 | 42.42243 | 12.78592 | 37183 ft | 488 kts | 122° |
| 2026-05-04 16:39 | 42.33413 | 12.98200 | 37180 ft | 488 kts | 122° |
| 2026-05-04 16:40 | 42.26371 | 13.13756 | 37178 ft | 486 kts | 122° |
| 2026-05-04 16:41 | 42.17489 | 13.33029 | 37171 ft | 485 kts | 128° |
| 2026-05-04 16:42 | 42.10466 | 13.42679 | 37159 ft | 481 kts | 139° |
| 2026-05-04 16:43 | 42.05582 | 13.48850 | 36797 ft | 483 kts | 139° |
| 2026-05-04 16:43 | 42.00581 | 13.55175 | 34797 ft | 496 kts | 139° |
| 2026-05-04 16:43 | 41.98074 | 13.58344 | 33961 ft | 497 kts | 139° |
| 2026-05-04 16:44 | 41.88038 | 13.70971 | 29720 ft | 473 kts | 137° |
| 2026-05-04 16:45 | 41.83276 | 13.76949 | 28306 ft | 465 kts | 138° |
| 2026-05-04 16:46 | 41.76259 | 13.85706 | 26275 ft | 454 kts | 138° |
| 2026-05-04 16:46 | 41.71666 | 13.91432 | 24956 ft | 448 kts | 138° |
| 2026-05-04 16:47 | 41.67139 | 13.97074 | 23695 ft | 440 kts | 139° |
| 2026-05-04 16:47 | 41.62703 | 14.02589 | 22573 ft | 430 kts | 138° |
| 2026-05-04 16:48 | 41.56617 | 14.11067 | 21072 ft | 413 kts | 132° |
| 2026-05-04 16:48 | 41.54751 | 14.13882 | 20581 ft | 408 kts | 132° |
| 2026-05-04 16:49 | 41.51023 | 14.19468 | 19569 ft | 399 kts | 133° |
| 2026-05-04 16:49 | 41.47367 | 14.24790 | 19067 ft | 372 kts | 133° |
| 2026-05-04 16:50 | 41.44083 | 14.29505 | 18816 ft | 325 kts | 133° |
| 2026-05-04 16:50 | 41.41006 | 14.33559 | 18141 ft | 301 kts | 140° |
| 2026-05-04 16:51 | 41.37915 | 14.37157 | 17149 ft | 294 kts | 140° |
| 2026-05-04 16:51 | 41.36384 | 14.38942 | 16626 ft | 292 kts | 139° |
| 2026-05-04 16:51 | 41.33314 | 14.42398 | 15655 ft | 285 kts | 148° |
| 2026-05-04 16:52 | 41.29963 | 14.45170 | 15079 ft | 283 kts | 149° |
| 2026-05-04 16:52 | 41.28298 | 14.46550 | 14809 ft | 282 kts | 149° |
| 2026-05-04 16:53 | 41.24704 | 14.48150 | 14282 ft | 275 kts | 190° |
| 2026-05-04 16:53 | 41.20750 | 14.43291 | 13457 ft | 267 kts | 239° |
| 2026-05-04 16:54 | 41.19779 | 14.41189 | 13189 ft | 267 kts | 239° |
| 2026-05-04 16:55 | 41.13759 | 14.38653 | 12120 ft | 265 kts | 148° |
| 2026-05-04 16:55 | 41.10627 | 14.41252 | 11585 ft | 265 kts | 148° |
| 2026-05-04 16:56 | 41.08714 | 14.45176 | 11058 ft | 263 kts | 91° |
| 2026-05-04 16:56 | 41.11112 | 14.51538 | 10632 ft | 263 kts | 57° |
| 2026-05-04 16:57 | 41.12069 | 14.53606 | 10474 ft | 262 kts | 58° |
| 2026-05-04 16:57 | 41.13944 | 14.57753 | 10167 ft | 262 kts | 58° |
| 2026-05-04 16:58 | 41.16779 | 14.63924 | 9713 ft | 260 kts | 58° |
| 2026-05-04 16:58 | 41.17720 | 14.65973 | 9564 ft | 260 kts | 58° |
| 2026-05-04 16:59 | 41.19603 | 14.70056 | 9271 ft | 259 kts | 58° |
| 2026-05-04 17:00 | 41.17871 | 14.77455 | 8536 ft | 237 kts | 149° |
| 2026-05-04 17:00 | 41.13369 | 14.79776 | 8091 ft | 238 kts | 196° |
| 2026-05-04 17:01 | 41.11019 | 14.76933 | 7815 ft | 236 kts | 239° |
| 2026-05-04 17:01 | 41.09334 | 14.73314 | 7537 ft | 225 kts | 239° |
| 2026-05-04 17:02 | 41.07689 | 14.69799 | 7284 ft | 224 kts | 238° |
| 2026-05-04 17:02 | 41.06050 | 14.66314 | 7013 ft | 223 kts | 238° |
| 2026-05-04 17:03 | 41.05233 | 14.64573 | 6739 ft | 222 kts | 238° |
| 2026-05-04 17:03 | 41.04422 | 14.62834 | 6428 ft | 222 kts | 238° |
| 2026-05-04 17:03 | 41.02813 | 14.59386 | 5795 ft | 221 kts | 238° |
| 2026-05-04 17:04 | 41.01190 | 14.55910 | 5129 ft | 222 kts | 238° |
| 2026-05-04 17:04 | 40.99563 | 14.52426 | 4475 ft | 223 kts | 238° |
| 2026-05-04 17:05 | 40.97932 | 14.48941 | 3819 ft | 222 kts | 238° |
| 2026-05-04 17:05 | 40.96295 | 14.45448 | 3174 ft | 225 kts | 238° |
| 2026-05-04 17:06 | 40.94667 | 14.41976 | 2516 ft | 212 kts | 238° |
| 2026-05-04 17:06 | 40.93921 | 14.40386 | 2203 ft | 195 kts | 238° |
| 2026-05-04 17:07 | 40.92601 | 14.37623 | 1749 ft | 154 kts | 238° |
| 2026-05-04 17:07 | 40.92227 | 14.36867 | 1610 ft | 144 kts | 238° |
| 2026-05-04 17:07 | 40.91546 | 14.35404 | 1228 ft | 137 kts | 241° |
| 2026-05-04 17:07 | 40.91059 | 14.34351 | 1018 ft | 133 kts | 240° |
| 2026-05-04 17:08 | 40.90579 | 14.33318 | 846 ft | 132 kts | 241° |
| 2026-05-04 17:08 | 40.89621 | 14.31253 | 476 ft | 131 kts | 239° |
| 2026-05-04 17:08 | 40.89139 | 14.30222 | 275 ft | 131 kts | 239° |
| 2026-05-04 17:09 | 40.88708 | 14.29296 | 262 ft | 96 kts | 238° |
| 2026-05-04 17:09 | 40.88444 | 14.28741 | 275 ft | 47 kts | 237° |
| 2026-05-04 17:09 | 40.88280 | 14.28466 | 285 ft | 35 kts | 216° |
| 2026-05-04 17:10 | 40.88069 | 14.28297 | 290 ft | 5 kts | 230° |
| 2026-05-04 17:10 | 40.88016 | 14.28141 | 296 ft | 6 kts | 214° |
| 2026-05-04 17:11 | 40.87984 | 14.28136 | 296 ft | 4 kts | 168° |
| 2026-05-04 17:11 | 40.87963 | 14.28168 | 293 ft | 7 kts | 112° |
| 2026-05-04 17:11 | 40.87946 | 14.28297 | 291 ft | 3 kts | 127° |
| 2026-05-04 17:12 | 40.87935 | 14.28296 | 293 ft | 1 kts | 184° |
| 2026-05-04 17:12 | 40.87884 | 14.28285 | 292 ft | 3 kts | 187° |
| 2026-05-04 17:13 | 40.87880 | 14.28285 | 291 ft | 0 kts | 187° |